createdAt,value
2018-08-13T00:01:21.660Z,1.40
2018-08-13T00:03:24.548Z,1.80
2018-08-13T00:05:27.433Z,1.43
2018-08-13T00:07:30.303Z,1.53
2018-08-13T00:09:33.233Z,1.87
2018-08-13T00:11:36.857Z,1.30
2018-08-13T00:13:39.782Z,1.30
2018-08-13T00:15:42.676Z,1.50
2018-08-13T00:17:46.317Z,1.60
2018-08-13T00:19:49.189Z,1.43
2018-08-13T00:21:52.125Z,2.90
2018-08-13T00:23:54.991Z,1.10
2018-08-13T00:25:57.883Z,1.50
2018-08-13T00:28:00.968Z,1.50
2018-08-13T00:30:03.849Z,1.40
2018-08-13T00:32:06.828Z,1.30
2018-08-13T00:34:11.241Z,1.40
2018-08-13T00:36:14.117Z,1.20
2018-08-13T00:38:16.984Z,1.30
2018-08-13T00:40:19.880Z,1.47
2018-08-13T00:42:22.908Z,1.13
2018-08-13T00:44:26.570Z,1.70
2018-08-13T00:46:30.997Z,1.10
2018-08-13T00:48:33.860Z,1.30
2018-08-13T00:50:36.732Z,1.70
2018-08-13T00:52:39.877Z,1.53
2018-08-13T00:54:42.817Z,1.60
2018-08-13T00:56:45.680Z,1.50
2018-08-13T00:58:48.574Z,1.40
2018-08-13T01:00:51.449Z,1.60
2018-08-13T01:02:54.321Z,1.33
2018-08-13T01:04:57.429Z,1.30
2018-08-13T01:07:00.401Z,1.57
2018-08-13T01:09:03.274Z,1.60
2018-08-13T01:11:06.174Z,1.33
2018-08-13T01:13:09.154Z,1.70
2018-08-13T01:15:12.035Z,1.67
2018-08-13T01:17:15.019Z,1.60
2018-08-13T01:19:17.901Z,1.23
2018-08-13T01:21:20.881Z,1.60
2018-08-13T01:23:23.869Z,1.47
2018-08-13T01:25:26.953Z,1.10
2018-08-13T01:27:30.753Z,1.42
2018-08-13T01:29:33.770Z,1.57
2018-08-13T01:31:37.387Z,1.30
2018-08-13T01:33:40.254Z,1.17
2018-08-13T01:35:43.196Z,1.40
2018-08-13T01:37:46.065Z,1.53
2018-08-13T01:39:48.944Z,1.27
2018-08-13T01:41:52.054Z,1.30
2018-08-13T01:43:54.984Z,1.30
2018-08-13T01:45:57.865Z,1.23
2018-08-13T01:48:00.776Z,1.40
2018-08-13T01:50:03.665Z,1.13
2018-08-13T01:52:08.081Z,1.50
2018-08-13T01:54:11.373Z,2.00
2018-08-13T01:56:14.339Z,1.10
2018-08-13T01:58:17.206Z,1.53
2018-08-13T02:00:20.108Z,1.50
2018-08-13T02:02:22.976Z,1.40
2018-08-13T02:04:25.872Z,1.43
2018-08-13T02:06:30.288Z,1.30
2018-08-13T02:08:33.155Z,1.27
2018-08-13T02:10:36.057Z,1.17
2018-08-13T02:12:40.474Z,1.40
2018-08-13T02:14:43.456Z,1.33
2018-08-13T02:16:46.452Z,1.07
2018-08-13T02:18:50.146Z,1.13
2018-08-13T02:20:53.114Z,1.40
2018-08-13T02:22:57.574Z,1.33
2018-08-13T02:25:00.497Z,1.33
2018-08-13T02:27:03.405Z,1.40
2018-08-13T02:29:07.053Z,1.30
2018-08-13T02:31:09.961Z,1.50
2018-08-13T02:33:12.836Z,1.40
2018-08-13T02:35:15.716Z,1.50
2018-08-13T02:37:18.716Z,1.70
2018-08-13T02:39:21.819Z,1.57
2018-08-13T02:41:24.672Z,1.53
2018-08-13T02:43:27.672Z,1.80
2018-08-13T02:45:30.658Z,1.60
2018-08-13T02:47:33.539Z,1.27
2018-08-13T02:49:36.520Z,1.60
2018-08-13T02:51:40.932Z,1.40
2018-08-13T02:53:45.353Z,1.50
2018-08-13T02:55:48.436Z,1.50
2018-08-13T02:57:51.317Z,1.63
2018-08-13T02:59:54.197Z,1.67
2018-08-13T03:01:57.101Z,1.40
2018-08-13T03:04:00.737Z,1.57
2018-08-13T03:06:03.659Z,1.30
2018-08-13T03:08:06.683Z,1.70
2018-08-13T03:10:10.340Z,1.70
2018-08-13T03:12:13.319Z,1.50
2018-08-13T03:14:16.309Z,1.67
2018-08-13T03:16:19.189Z,1.50
2018-08-13T03:18:22.172Z,1.50
2018-08-13T03:20:26.693Z,1.30
2018-08-13T03:22:31.101Z,1.67
2018-08-13T03:24:33.972Z,1.30
2018-08-13T03:26:36.973Z,1.40
2018-08-13T03:28:39.841Z,1.70
2018-08-13T03:30:42.732Z,1.57
2018-08-13T03:32:45.716Z,1.40
2018-08-13T03:34:48.585Z,1.70
2018-08-13T03:36:51.576Z,1.70
2018-08-13T03:38:54.560Z,1.10
2018-08-13T03:40:57.456Z,1.10
2018-08-13T03:43:00.423Z,1.87
2018-08-13T03:45:03.508Z,1.73
2018-08-13T03:47:06.389Z,1.47
2018-08-13T03:49:09.268Z,1.43
2018-08-13T03:51:12.360Z,1.67
2018-08-13T03:53:15.257Z,1.63
2018-08-13T03:55:18.937Z,1.20
2018-08-13T03:57:22.628Z,1.50
2018-08-13T03:59:25.500Z,1.50
2018-08-13T04:01:28.503Z,2.00
2018-08-13T04:03:31.589Z,1.43
2018-08-13T04:05:34.573Z,1.60
2018-08-13T04:07:37.436Z,1.63
2018-08-13T04:09:40.426Z,1.57
2018-08-13T04:11:43.310Z,1.83
2018-08-13T04:13:46.177Z,1.73
2018-08-13T04:15:49.176Z,1.97
2018-08-13T04:17:52.157Z,1.83
2018-08-13T04:19:55.025Z,1.80
2018-08-13T04:21:57.923Z,1.80
2018-08-13T04:24:00.907Z,1.43
2018-08-13T04:26:03.784Z,1.83
2018-08-13T04:28:08.189Z,1.63
2018-08-13T04:30:11.076Z,2.20
2018-08-13T04:32:15.463Z,2.27
2018-08-13T04:34:18.453Z,2.00
2018-08-13T04:36:21.360Z,1.77
2018-08-13T04:38:24.320Z,1.75
2018-08-13T04:40:27.213Z,1.87
2018-08-13T04:42:31.032Z,1.80
2018-08-13T04:44:33.913Z,1.43
2018-08-13T04:46:38.732Z,2.20
2018-08-13T04:48:41.609Z,1.80
2018-08-13T04:50:44.503Z,2.10
2018-08-13T04:52:48.900Z,2.00
2018-08-13T04:54:51.756Z,1.60
2018-08-13T04:56:54.624Z,1.73
2018-08-13T04:58:57.551Z,1.90
2018-08-13T05:01:00.380Z,1.57
2018-08-13T05:03:04.034Z,1.80
2018-08-13T05:05:07.058Z,1.87
2018-08-13T05:07:09.892Z,2.00
2018-08-13T05:09:12.756Z,2.00
2018-08-13T05:11:15.651Z,2.03
2018-08-13T05:13:18.545Z,1.90
2018-08-13T05:15:21.420Z,2.10
2018-08-13T05:17:24.393Z,2.07
2018-08-13T05:19:27.389Z,2.00
2018-08-13T05:21:30.264Z,1.60
2018-08-13T05:23:33.252Z,2.20
2018-08-13T05:25:36.237Z,2.30
2018-08-13T05:27:39.117Z,1.57
2018-08-13T05:29:42.016Z,2.30
2018-08-13T05:31:45.688Z,1.93
2018-08-13T05:33:48.567Z,3.03
2018-08-13T05:35:51.559Z,1.80
2018-08-13T05:37:54.437Z,2.70
2018-08-13T05:39:57.364Z,2.70
2018-08-13T05:42:01.009Z,1.90
2018-08-13T05:44:03.904Z,2.83
2018-08-13T05:46:08.312Z,2.10
2018-08-13T05:48:11.508Z,2.70
2018-08-13T05:50:14.384Z,2.13
2018-08-13T05:52:17.248Z,2.50
2018-08-13T05:54:20.247Z,2.60
2018-08-13T05:56:23.124Z,2.67
2018-08-13T05:58:27.548Z,2.43
2018-08-13T06:00:31.964Z,2.57
2018-08-13T06:02:34.840Z,2.73
2018-08-13T06:04:37.736Z,2.63
2018-08-13T06:06:40.708Z,2.47
2018-08-13T06:08:43.590Z,2.27
2018-08-13T06:10:46.460Z,2.67
2018-08-13T06:12:49.451Z,2.93
2018-08-13T06:14:52.320Z,2.63
2018-08-13T06:16:55.192Z,2.57
2018-08-13T06:18:58.086Z,3.00
2018-08-13T06:21:00.978Z,2.80
2018-08-13T06:23:03.856Z,2.80
2018-08-13T06:25:08.264Z,3.10
2018-08-13T06:27:12.695Z,3.27
2018-08-13T06:29:15.568Z,2.70
2018-08-13T06:31:18.564Z,3.20
2018-08-13T06:33:21.444Z,3.13
2018-08-13T06:35:25.087Z,3.60
2018-08-13T06:37:27.985Z,4.13
2018-08-13T06:39:30.901Z,3.67
2018-08-13T06:41:33.764Z,3.77
2018-08-13T06:43:36.760Z,4.37
2018-08-13T06:45:39.749Z,3.50
2018-08-13T06:47:42.763Z,3.50
2018-08-13T06:49:46.441Z,3.57
2018-08-13T06:51:50.115Z,3.87
2018-08-13T06:53:53.017Z,3.67
2018-08-13T06:55:55.979Z,3.23
2018-08-13T06:57:59.688Z,4.10
2018-08-13T07:00:02.560Z,3.17
2018-08-13T07:02:05.543Z,3.20
2018-08-13T07:04:08.428Z,2.83
2018-08-13T07:06:11.320Z,3.60
2018-08-13T07:08:14.293Z,3.60
2018-08-13T07:10:17.280Z,3.87
2018-08-13T07:12:21.736Z,3.70
2018-08-13T07:14:25.605Z,3.37
2018-08-13T07:16:28.576Z,3.67
2018-08-13T07:18:31.464Z,3.20
2018-08-13T07:20:34.455Z,3.80
2018-08-13T07:22:38.096Z,3.30
2018-08-13T07:24:41.020Z,4.10
2018-08-13T07:26:44.112Z,3.87
2018-08-13T07:28:47.868Z,3.90
2018-08-13T07:30:50.791Z,3.43
2018-08-13T07:32:53.789Z,3.67
2018-08-13T07:34:56.699Z,4.00
2018-08-13T07:36:59.858Z,3.53
2018-08-13T07:39:02.953Z,4.10
2018-08-13T07:41:06.524Z,3.40
2018-08-13T07:43:10.913Z,3.20
2018-08-13T07:45:13.848Z,3.80
2018-08-13T07:47:16.697Z,4.00
2018-08-13T07:49:19.588Z,4.27
2018-08-13T07:51:22.572Z,3.20
2018-08-13T07:53:25.556Z,3.67
2018-08-13T07:55:28.532Z,3.07
2018-08-13T07:57:31.824Z,3.67
2018-08-13T07:59:34.713Z,3.60
2018-08-13T08:01:37.589Z,3.90
2018-08-13T08:03:40.577Z,5.40
2018-08-13T08:05:43.552Z,3.80
2018-08-13T08:07:46.420Z,3.80
2018-08-13T08:09:49.417Z,3.80
2018-08-13T08:11:52.297Z,3.97
2018-08-13T08:13:55.163Z,3.87
2018-08-13T08:15:58.369Z,4.00
2018-08-13T08:18:01.250Z,4.10
2018-08-13T08:20:05.660Z,4.70
2018-08-13T08:22:08.560Z,5.43
2018-08-13T08:24:11.433Z,5.13
2018-08-13T08:26:14.457Z,4.50
2018-08-13T08:28:17.396Z,5.27
2018-08-13T08:30:20.378Z,4.90
2018-08-13T08:32:23.249Z,4.67
2018-08-13T08:34:26.240Z,4.70
2018-08-13T08:36:29.111Z,4.33
2018-08-13T08:38:32.001Z,4.77
2018-08-13T08:40:36.490Z,5.30
2018-08-13T08:42:39.277Z,5.60
2018-08-13T08:44:42.179Z,5.10
2018-08-13T08:46:45.076Z,4.60
2018-08-13T08:48:47.935Z,3.97
2018-08-13T08:50:50.809Z,4.27
2018-08-13T08:52:53.804Z,4.87
2018-08-13T08:54:56.784Z,4.80
2018-08-13T08:56:59.769Z,4.53
2018-08-13T08:59:04.193Z,5.43
2018-08-13T09:01:07.056Z,4.20
2018-08-13T09:03:10.048Z,4.60
2018-08-13T09:05:12.954Z,4.23
2018-08-13T09:07:15.868Z,3.50
2018-08-13T09:09:18.744Z,4.00
2018-08-13T09:11:21.668Z,4.07
2018-08-13T09:13:24.596Z,4.13
2018-08-13T09:15:28.253Z,4.80
2018-08-13T09:17:31.240Z,4.30
2018-08-13T09:19:46.216Z,4.17
2018-08-13T09:21:54.863Z,4.03
2018-08-13T09:24:09.689Z,4.07
2018-08-13T09:26:36.824Z,3.97
2018-08-13T09:29:03.460Z,3.90
2018-08-13T09:31:10.256Z,3.90
2018-08-13T09:33:25.916Z,3.93
2018-08-13T09:35:30.605Z,4.25
2018-08-13T09:37:33.555Z,4.27
2018-08-13T09:39:37.221Z,4.00
2018-08-13T09:41:40.121Z,3.73
2018-08-13T09:43:43.785Z,4.13
2018-08-13T09:45:46.664Z,4.33
2018-08-13T09:47:49.537Z,3.50
2018-08-13T09:49:52.548Z,3.70
2018-08-13T09:51:55.424Z,3.10
2018-08-13T09:53:58.305Z,3.50
2018-08-13T09:56:01.208Z,4.20
2018-08-13T09:58:04.935Z,3.60
2018-08-13T10:00:08.568Z,3.07
2018-08-13T10:02:11.453Z,4.03
2018-08-13T10:04:14.451Z,3.70
2018-08-13T10:06:17.337Z,4.00
2018-08-13T10:08:20.228Z,3.43
2018-08-13T10:10:23.135Z,3.40
2018-08-13T10:12:26.080Z,3.50
2018-08-13T10:14:29.280Z,3.70
2018-08-13T10:16:32.920Z,3.07
2018-08-13T10:18:35.790Z,3.27
2018-08-13T10:20:38.784Z,2.80
2018-08-13T10:22:41.712Z,4.10
2018-08-13T10:24:44.589Z,3.30
2018-08-13T10:26:47.568Z,3.10
2018-08-13T10:28:50.561Z,3.80
2018-08-13T10:30:53.437Z,3.30
2018-08-13T10:32:56.416Z,3.40
2018-08-13T10:34:59.288Z,3.83
2018-08-13T10:37:02.167Z,3.30
2018-08-13T10:39:05.361Z,3.43
2018-08-13T10:41:08.249Z,3.73
2018-08-13T10:43:11.132Z,3.03
2018-08-13T10:45:14.215Z,3.40
2018-08-13T10:47:17.096Z,3.73
2018-08-13T10:49:19.975Z,4.13
2018-08-13T10:51:22.964Z,2.90
2018-08-13T10:53:25.824Z,3.30
2018-08-13T10:55:28.818Z,3.60
2018-08-13T10:57:31.746Z,3.30
2018-08-13T10:59:35.401Z,3.40
2018-08-13T11:01:38.434Z,3.37
2018-08-13T11:03:42.188Z,3.17
2018-08-13T11:05:45.064Z,3.07
2018-08-13T11:07:49.500Z,2.67
2018-08-13T11:09:52.497Z,2.73
2018-08-13T11:11:55.354Z,2.90
2018-08-13T11:13:58.225Z,2.73
2018-08-13T11:16:01.319Z,2.40
2018-08-13T11:18:04.201Z,2.77
2018-08-13T11:20:07.077Z,1.80
2018-08-13T11:22:09.960Z,2.03
2018-08-13T11:24:12.838Z,1.73
2018-08-13T11:26:15.831Z,1.93
2018-08-13T11:28:18.856Z,3.73
2018-08-13T11:30:22.504Z,2.53
2018-08-13T11:32:25.389Z,2.00
2018-08-13T11:34:28.271Z,2.13
2018-08-13T11:36:31.247Z,2.43
2018-08-13T11:38:34.120Z,2.10
2018-08-13T11:40:37.069Z,2.17
2018-08-13T11:42:40.038Z,2.20
2018-08-13T11:44:43.664Z,2.57
2018-08-13T11:46:46.577Z,2.27
2018-08-13T11:48:49.452Z,2.50
2018-08-13T11:50:52.327Z,2.50
2018-08-13T11:52:55.232Z,2.40
2018-08-13T11:54:58.923Z,2.40
2018-08-13T11:57:01.910Z,2.30
2018-08-13T11:59:04.817Z,2.90
2018-08-13T12:01:07.832Z,2.37
2018-08-13T12:03:10.637Z,3.13
2018-08-13T12:05:13.569Z,2.93
2018-08-13T12:07:16.549Z,2.70
2018-08-13T12:09:19.490Z,2.93
2018-08-13T12:11:22.404Z,2.93
2018-08-13T12:13:26.033Z,3.10
2018-08-13T12:15:28.960Z,3.17
2018-08-13T12:17:31.851Z,2.87
2018-08-13T12:19:35.577Z,3.20
2018-08-13T12:21:38.361Z,3.07
2018-08-13T12:23:41.268Z,3.50
2018-08-13T12:25:44.192Z,3.70
2018-08-13T12:27:48.593Z,4.70
2018-08-13T12:29:51.578Z,5.07
2018-08-13T12:31:54.443Z,3.23
2018-08-13T12:33:57.325Z,4.10
2018-08-13T12:36:00.419Z,4.63
2018-08-13T12:38:03.296Z,3.80
2018-08-13T12:40:06.195Z,3.73
2018-08-13T12:42:09.164Z,3.97
2018-08-13T12:44:12.095Z,4.30
2018-08-13T12:46:15.025Z,3.83
2018-08-13T12:48:18.053Z,4.13
2018-08-13T12:50:21.670Z,3.70
2018-08-13T12:52:24.599Z,4.17
2018-08-13T12:54:27.577Z,3.50
2018-08-13T12:56:30.448Z,2.93
2018-08-13T12:58:33.345Z,3.43
2018-08-13T13:00:36.234Z,2.60
2018-08-13T13:02:39.935Z,2.40
2018-08-13T13:04:42.819Z,2.67
2018-08-13T13:06:46.493Z,2.37
2018-08-13T13:08:49.419Z,2.57
2018-08-13T13:10:52.260Z,2.80
2018-08-13T13:12:55.148Z,3.40
2018-08-13T13:14:58.061Z,2.90
2018-08-13T13:17:01.716Z,3.40
2018-08-13T13:19:04.912Z,3.40
2018-08-13T13:21:07.781Z,3.53
2018-08-13T13:23:10.652Z,3.40
2018-08-13T13:25:13.648Z,3.47
2018-08-13T13:27:16.532Z,3.50
2018-08-13T13:29:19.405Z,3.50
2018-08-13T13:31:22.570Z,3.20
2018-08-13T13:33:25.484Z,3.20
2018-08-13T13:35:28.403Z,3.63
2018-08-13T13:37:32.069Z,3.60
2018-08-13T13:39:34.953Z,3.00
2018-08-13T13:41:37.864Z,3.50
2018-08-13T13:43:40.709Z,3.20
2018-08-13T13:45:43.597Z,2.87
2018-08-13T13:47:46.489Z,2.73
2018-08-13T13:49:50.160Z,2.67
2018-08-13T13:51:53.060Z,3.70
2018-08-13T13:53:56.029Z,3.37
2018-08-13T13:55:59.011Z,2.73
2018-08-13T13:58:01.892Z,2.97
2018-08-13T14:00:05.016Z,2.90
2018-08-13T14:02:08.637Z,2.47
2018-08-13T14:04:11.508Z,2.67
2018-08-13T14:06:14.401Z,2.93
2018-08-13T14:08:17.284Z,2.80
2018-08-13T14:10:20.215Z,2.73
2018-08-13T14:12:23.178Z,3.83
2018-08-13T14:14:26.052Z,2.90
2018-08-13T14:16:28.990Z,3.57
2018-08-13T14:18:31.889Z,2.93
2018-08-13T14:20:34.777Z,3.63
2018-08-13T14:22:37.703Z,2.37
2018-08-13T14:24:41.392Z,2.40
2018-08-13T14:26:44.260Z,2.17
2018-08-13T14:28:47.160Z,2.13
2018-08-13T14:30:51.892Z,2.60
2018-08-13T14:32:55.536Z,2.13
2018-08-13T14:34:58.465Z,3.00
2018-08-13T14:37:01.541Z,2.10
2018-08-13T14:39:04.441Z,2.47
2018-08-13T14:41:08.122Z,2.70
2018-08-13T14:43:11.009Z,2.70
2018-08-13T14:45:13.970Z,2.93
2018-08-13T14:47:17.551Z,2.63
2018-08-13T14:49:20.424Z,2.83
2018-08-13T14:51:23.330Z,2.00
2018-08-13T14:53:26.226Z,2.07
2018-08-13T14:55:29.117Z,2.47
2018-08-13T14:57:32.805Z,1.80
2018-08-13T14:59:35.696Z,2.77
2018-08-13T15:01:38.772Z,2.37
2018-08-13T15:03:41.649Z,2.03
2018-08-13T15:05:44.540Z,2.20
2018-08-13T15:07:47.453Z,1.80
2018-08-13T15:09:51.069Z,2.80
2018-08-13T15:11:53.984Z,1.93
2018-08-13T15:13:57.086Z,2.03
2018-08-13T15:15:59.956Z,1.77
2018-08-13T15:18:02.850Z,1.90
2018-08-13T15:20:05.736Z,1.50
2018-08-13T15:22:09.384Z,1.80
2018-08-13T15:24:12.304Z,1.50
2018-08-13T15:26:15.325Z,1.60
2018-08-13T15:28:18.195Z,1.57
2018-08-13T15:30:21.049Z,1.57
2018-08-13T15:32:24.336Z,1.67
2018-08-13T15:34:27.200Z,1.40
2018-08-13T15:36:30.100Z,1.57
2018-08-13T15:38:33.000Z,1.43
2018-08-13T15:40:36.674Z,1.33
2018-08-13T15:42:39.534Z,1.40
2018-08-13T15:44:42.690Z,1.20
2018-08-13T15:46:45.556Z,1.37
2018-08-13T15:48:48.517Z,1.33
2018-08-13T15:50:51.412Z,1.30
2018-08-13T15:52:55.046Z,1.47
2018-08-13T15:54:57.924Z,1.83
2018-08-13T15:57:00.849Z,1.27
2018-08-13T15:59:04.240Z,1.37
2018-08-13T16:01:07.225Z,1.37
2018-08-13T16:03:10.511Z,1.40
2018-08-13T16:05:13.389Z,1.30
2018-08-13T16:07:16.274Z,1.60
2018-08-13T16:09:19.160Z,1.57
2018-08-13T16:11:22.045Z,1.30
2018-08-13T16:13:24.922Z,0.90
2018-08-13T16:15:28.001Z,1.60
2018-08-13T16:17:30.876Z,1.13
2018-08-13T16:19:33.736Z,1.20
2018-08-13T16:21:36.746Z,1.60
2018-08-13T16:23:39.629Z,1.40
2018-08-13T16:25:42.614Z,1.63
2018-08-13T16:27:45.513Z,1.40
2018-08-13T16:29:49.149Z,1.47
2018-08-13T16:31:52.073Z,1.37
2018-08-13T16:33:55.048Z,1.37
2018-08-13T16:35:57.936Z,1.63
2018-08-13T16:38:00.809Z,1.60
2018-08-13T16:40:03.695Z,1.43
2018-08-13T16:42:06.576Z,1.53
2018-08-13T16:44:09.457Z,1.60
2018-08-13T16:46:12.751Z,1.23
2018-08-13T16:48:15.620Z,1.50
2018-08-13T16:50:18.512Z,1.63
2018-08-13T16:52:21.492Z,1.40
2018-08-13T16:54:24.372Z,1.10
2018-08-13T16:56:27.254Z,1.60
2018-08-13T16:58:30.237Z,1.50
2018-08-13T17:00:33.113Z,1.40
2018-08-13T17:02:36.001Z,1.20
2018-08-13T17:04:39.093Z,1.37
2018-08-13T17:06:41.966Z,1.80
2018-08-13T17:08:44.844Z,1.60
2018-08-13T17:10:47.747Z,1.90
2018-08-13T17:12:51.463Z,1.47
2018-08-13T17:14:54.304Z,1.40
2018-08-13T17:16:57.196Z,2.20
2018-08-13T17:19:01.606Z,1.70
2018-08-13T17:21:04.597Z,2.10
2018-08-13T17:23:07.564Z,2.40
2018-08-13T17:25:10.554Z,1.40
2018-08-13T17:27:13.425Z,1.30
2018-08-13T17:29:16.317Z,1.33
2018-08-13T17:31:19.388Z,1.50
2018-08-13T17:33:22.284Z,1.90
2018-08-13T17:35:25.204Z,1.43
2018-08-13T17:37:28.145Z,1.80
2018-08-13T17:39:31.028Z,1.30
2018-08-13T17:41:34.004Z,1.50
2018-08-13T17:43:36.984Z,1.57
2018-08-13T17:45:39.879Z,1.43
2018-08-13T17:47:42.776Z,1.70
2018-08-13T17:49:46.449Z,1.40
2018-08-13T17:51:49.330Z,1.97
2018-08-13T17:53:52.317Z,1.43
2018-08-13T17:55:55.185Z,1.20
2018-08-13T17:57:58.077Z,1.17
2018-08-13T18:00:00.969Z,1.60
2018-08-13T18:02:03.996Z,1.73
2018-08-13T18:04:06.925Z,1.87
2018-08-13T18:06:09.857Z,2.10
2018-08-13T18:08:12.835Z,1.63
2018-08-13T18:10:15.764Z,1.30
2018-08-13T18:12:18.856Z,1.50
2018-08-13T18:14:21.737Z,1.37
2018-08-13T18:16:24.716Z,1.60
2018-08-13T18:18:27.629Z,1.80
2018-08-13T18:20:31.259Z,2.07
2018-08-13T18:22:34.136Z,1.43
2018-08-13T18:24:37.056Z,1.30
2018-08-13T18:26:39.940Z,1.40
2018-08-13T18:28:43.008Z,1.30
2018-08-13T18:30:46.012Z,1.70
2018-08-13T18:32:48.897Z,1.67
2018-08-13T18:34:53.268Z,1.30
2018-08-13T18:36:56.193Z,1.40
2018-08-13T18:38:59.381Z,1.97
2018-08-13T18:41:02.356Z,2.47
2018-08-13T18:43:05.448Z,1.50
2018-08-13T18:45:08.317Z,1.60
2018-08-13T18:47:11.183Z,1.40
2018-08-13T18:49:14.189Z,1.43
2018-08-13T18:51:17.069Z,1.10
2018-08-13T18:53:19.940Z,0.97
2018-08-13T18:55:22.843Z,0.70
2018-08-13T18:57:27.216Z,0.90
2018-08-13T18:59:30.136Z,0.60
2018-08-13T19:01:33.104Z,0.80
2018-08-13T19:03:36.812Z,0.80
2018-08-13T19:05:39.688Z,0.70
2018-08-13T19:07:42.572Z,0.80
2018-08-13T19:09:45.449Z,0.70
2018-08-13T19:11:48.455Z,0.80
2018-08-13T19:13:51.461Z,0.80
2018-08-13T19:15:54.288Z,0.80
2018-08-13T19:17:57.188Z,0.90
2018-08-13T19:20:00.163Z,0.60
2018-08-13T19:22:03.041Z,0.80
2018-08-13T19:24:05.909Z,0.70
2018-08-13T19:26:08.920Z,0.80
2018-08-13T19:28:11.885Z,0.80
2018-08-13T19:30:14.866Z,0.70
2018-08-13T19:32:17.861Z,0.80
2018-08-13T19:34:20.845Z,0.60
2018-08-13T19:36:23.725Z,0.83
2018-08-13T19:38:26.641Z,0.90
2018-08-13T19:40:30.264Z,0.77
2018-08-13T19:42:33.125Z,0.70
2018-08-13T19:44:36.797Z,0.73
2018-08-13T19:46:39.685Z,0.77
2018-08-13T19:48:42.597Z,0.80
2018-08-13T19:50:45.512Z,1.20
2018-08-13T19:52:48.385Z,0.83
2018-08-13T19:54:51.389Z,0.70
2018-08-13T19:56:54.474Z,0.83
2018-08-13T19:58:57.448Z,1.00
2018-08-13T20:01:00.328Z,0.90
2018-08-13T20:03:03.322Z,0.80
2018-08-13T20:05:06.199Z,0.70
2018-08-13T20:07:09.184Z,0.70
2018-08-13T20:09:12.162Z,0.80
2018-08-13T20:11:15.038Z,0.70
2018-08-13T20:13:18.066Z,0.80
2018-08-13T20:15:21.833Z,0.90
2018-08-13T20:17:24.884Z,1.00
2018-08-13T20:19:27.769Z,1.27
2018-08-13T20:21:30.672Z,1.10
2018-08-13T20:23:33.553Z,0.83
2018-08-13T20:25:36.429Z,1.37
2018-08-13T20:27:39.322Z,1.13
2018-08-13T20:29:42.191Z,1.30
2018-08-13T20:31:45.073Z,1.00
2018-08-13T20:33:48.176Z,0.97
2018-08-13T20:35:51.149Z,0.90
2018-08-13T20:37:54.016Z,1.10
2018-08-13T20:39:56.904Z,0.97
2018-08-13T20:41:59.896Z,0.80
2018-08-13T20:44:02.756Z,0.90
2018-08-13T20:46:05.768Z,0.90
2018-08-13T20:48:08.633Z,1.03
2018-08-13T20:50:11.496Z,1.00
2018-08-13T20:52:14.384Z,0.83
2018-08-13T20:54:17.255Z,0.90
2018-08-13T20:56:20.156Z,1.00
2018-08-13T20:58:23.092Z,0.80
2018-08-13T21:00:25.988Z,0.90
2018-08-13T21:02:28.909Z,1.10
2018-08-13T21:04:31.880Z,1.03
2018-08-13T21:06:34.761Z,1.20
2018-08-13T21:08:37.644Z,0.87
2018-08-13T21:10:40.633Z,1.13
2018-08-13T21:12:43.519Z,1.00
2018-08-13T21:14:47.892Z,1.20
2018-08-13T21:16:50.812Z,1.13
2018-08-13T21:18:53.820Z,0.90
2018-08-13T21:20:56.972Z,1.05
2018-08-13T21:23:01.399Z,0.90
2018-08-13T21:25:04.279Z,1.07
2018-08-13T21:27:07.160Z,1.37
2018-08-13T21:29:10.058Z,0.90
2018-08-13T21:31:13.747Z,4.27
2018-08-13T21:33:16.616Z,1.80
2018-08-13T21:35:19.600Z,1.40
2018-08-13T21:37:22.564Z,0.97
2018-08-13T21:39:25.341Z,0.90
2018-08-13T21:41:28.242Z,1.40
2018-08-13T21:43:31.112Z,1.00
2018-08-13T21:45:34.113Z,1.00
2018-08-13T21:47:37.014Z,1.00
2018-08-13T21:49:40.696Z,0.80
2018-08-13T21:51:43.572Z,0.80
2018-08-13T21:53:47.975Z,0.80
2018-08-13T21:55:50.868Z,0.80
2018-08-13T21:57:53.745Z,0.90
2018-08-13T21:59:56.728Z,0.83
2018-08-13T22:01:59.657Z,0.80
2018-08-13T22:04:02.492Z,1.03
2018-08-13T22:06:05.777Z,1.00
2018-08-13T22:08:08.704Z,0.90
2018-08-13T22:10:11.640Z,1.00
2018-08-13T22:12:14.528Z,0.90
2018-08-13T22:14:17.521Z,0.98
2018-08-13T22:16:21.212Z,0.80
2018-08-13T22:18:24.208Z,0.90
2018-08-13T22:20:27.073Z,0.90
2018-08-13T22:22:29.953Z,0.80
2018-08-13T22:24:44.589Z,0.80
2018-08-13T22:26:47.487Z,0.90
2018-08-13T22:28:50.369Z,0.97
2018-08-13T22:30:53.272Z,1.00
2018-08-13T22:32:56.918Z,0.93
2018-08-13T22:34:59.844Z,1.17
2018-08-13T22:37:02.816Z,0.80
2018-08-13T22:39:05.698Z,0.93
2018-08-13T22:41:08.585Z,0.60
2018-08-13T22:43:11.561Z,0.80
2018-08-13T22:45:15.301Z,1.43
2018-08-13T22:47:19.068Z,0.83
2018-08-13T22:49:23.464Z,1.10
2018-08-13T22:51:26.356Z,1.53
2018-08-13T22:53:29.240Z,0.90
2018-08-13T22:55:32.224Z,0.90
2018-08-13T22:57:35.105Z,1.00
2018-08-13T22:59:37.976Z,1.17
2018-08-13T23:01:40.968Z,0.70
2018-08-13T23:03:43.849Z,1.40
2018-08-13T23:05:48.236Z,1.47
2018-08-13T23:07:51.153Z,1.00
2018-08-13T23:09:54.017Z,0.93
2018-08-13T23:11:56.907Z,2.50
2018-08-13T23:13:59.800Z,1.10
2018-08-13T23:16:02.680Z,1.00
2018-08-13T23:18:06.330Z,1.23
2018-08-13T23:20:09.252Z,1.13
2018-08-13T23:22:12.136Z,0.90
2018-08-13T23:24:15.009Z,0.97
2018-08-13T23:26:17.936Z,1.10
2018-08-13T23:28:21.592Z,1.10
2018-08-13T23:30:24.528Z,0.90
2018-08-13T23:32:28.272Z,1.13
2018-08-13T23:34:31.138Z,1.17
2018-08-13T23:36:34.004Z,0.97
2018-08-13T23:38:36.896Z,0.77
2018-08-13T23:40:39.757Z,1.07
2018-08-13T23:42:42.672Z,1.00
2018-08-13T23:44:45.869Z,1.00
2018-08-13T23:46:48.853Z,1.30
2018-08-13T23:48:51.733Z,1.20
2018-08-13T23:50:54.821Z,0.90
2018-08-13T23:52:57.713Z,1.17
2018-08-13T23:55:01.362Z,0.93
2018-08-13T23:57:04.364Z,1.40
2018-08-13T23:59:07.260Z,0.90
